createdAt,value
2023-02-16T00:01:24.515Z,-3.27
2023-02-16T00:03:53.320Z,-3.24
2023-02-16T00:06:21.766Z,-3.16
2023-02-16T00:08:51.408Z,-3.23
2023-02-16T00:11:39.659Z,-3.30
2023-02-16T00:14:12.114Z,-3.32
2023-02-16T00:16:40.362Z,-3.12
2023-02-16T00:19:23.242Z,-3.18
2023-02-16T00:21:53.319Z,-3.26
2023-02-16T00:24:21.884Z,-3.39
2023-02-16T00:26:50.925Z,-3.17
2023-02-16T00:29:26.734Z,-3.32
2023-02-16T00:31:55.867Z,-3.25
2023-02-16T00:34:29.083Z,-3.29
2023-02-16T00:36:59.160Z,-3.33
2023-02-16T00:39:28.174Z,-3.27
2023-02-16T00:41:58.167Z,-3.33
2023-02-16T00:44:33.447Z,-3.29
2023-02-16T00:47:04.880Z,-3.30
2023-02-16T00:49:33.225Z,-3.30
2023-02-16T00:52:01.558Z,-3.35
2023-02-16T00:54:31.878Z,-3.26
2023-02-16T00:57:00.619Z,-3.25
2023-02-16T00:59:30.425Z,-3.30
2023-02-16T01:01:58.677Z,-3.26
2023-02-16T01:04:27.100Z,-3.26
2023-02-16T01:07:12.724Z,-3.43
2023-02-16T01:09:58.394Z,-3.42
2023-02-16T01:12:26.628Z,-3.38
2023-02-16T01:14:57.091Z,-3.33
2023-02-16T01:17:26.455Z,-3.32
2023-02-16T01:19:54.965Z,-3.36
2023-02-16T01:22:23.208Z,-3.46
2023-02-16T01:24:51.614Z,-3.37
2023-02-16T01:27:19.910Z,-3.38
2023-02-16T01:29:48.576Z,-3.38
2023-02-16T01:32:18.456Z,-3.40
2023-02-16T01:34:46.845Z,-3.42
2023-02-16T01:37:17.479Z,-3.48
2023-02-16T01:39:45.968Z,-3.43
2023-02-16T01:42:24.493Z,-3.45
2023-02-16T01:44:54.712Z,-3.41
2023-02-16T01:47:43.385Z,-3.37
2023-02-16T01:50:17.948Z,-3.39
2023-02-16T01:52:50.961Z,-3.46
2023-02-16T01:55:23.512Z,-3.43
2023-02-16T01:57:55.168Z,-3.41
2023-02-16T02:00:30.705Z,-3.40
2023-02-16T02:03:22.215Z,-3.44
2023-02-16T02:05:49.847Z,-3.48
2023-02-16T02:08:25.043Z,-3.43
2023-02-16T02:11:01.790Z,-3.39
2023-02-16T02:13:34.502Z,-3.38
2023-02-16T02:16:25.385Z,-3.52
2023-02-16T02:18:55.426Z,-3.43
2023-02-16T02:21:51.551Z,-3.37
2023-02-16T02:24:44.640Z,-3.40
2023-02-16T02:27:20.430Z,-3.38
2023-02-16T02:30:08.866Z,-3.45
2023-02-16T02:32:53.006Z,-3.47
2023-02-16T02:35:31.663Z,-3.48
2023-02-16T02:38:12.548Z,-3.54
2023-02-16T02:40:50.014Z,-3.56
2023-02-16T02:43:22.873Z,-3.54
2023-02-16T02:45:55.419Z,-3.54
2023-02-16T02:48:23.754Z,-3.54
2023-02-16T02:51:15.168Z,-3.45
2023-02-16T02:53:46.644Z,-3.36
2023-02-16T02:56:33.631Z,-3.62
2023-02-16T02:59:25.049Z,-3.49
2023-02-16T03:01:56.110Z,-3.47
2023-02-16T03:04:27.243Z,-3.49
2023-02-16T03:06:57.920Z,-3.48
2023-02-16T03:09:26.982Z,-3.52
2023-02-16T03:12:13.848Z,-3.62
2023-02-16T03:14:45.920Z,-3.63
2023-02-16T03:17:34.616Z,-3.59
2023-02-16T03:20:21.974Z,-3.63
2023-02-16T03:23:08.157Z,-3.66
2023-02-16T03:25:56.267Z,-3.68
2023-02-16T03:28:44.815Z,-3.71
2023-02-16T03:31:19.308Z,-3.73
2023-02-16T03:33:54.823Z,-3.54
2023-02-16T03:36:23.942Z,-3.72
2023-02-16T03:38:52.617Z,-3.78
2023-02-16T03:41:21.073Z,-3.80
2023-02-16T03:43:49.390Z,-3.79
2023-02-16T03:46:19.365Z,-3.74
2023-02-16T03:48:47.736Z,-3.81
2023-02-16T03:51:16.147Z,-3.79
2023-02-16T03:53:44.669Z,-3.73
2023-02-16T03:56:13.048Z,-3.77
2023-02-16T03:58:41.314Z,-3.85
2023-02-16T04:01:09.872Z,-3.85
2023-02-16T04:03:39.888Z,-3.78
2023-02-16T04:06:08.926Z,-3.81
2023-02-16T04:08:37.483Z,-3.80
2023-02-16T04:11:27.469Z,-3.94
2023-02-16T04:13:54.764Z,-3.92
2023-02-16T04:16:23.145Z,-3.91
2023-02-16T04:18:52.896Z,-3.94
2023-02-16T04:21:21.149Z,-3.94
2023-02-16T04:23:49.578Z,-3.91
2023-02-16T04:26:17.940Z,-3.89
2023-02-16T04:28:46.235Z,-3.90
2023-02-16T04:31:14.641Z,-3.92
2023-02-16T04:33:43.050Z,-3.92
2023-02-16T04:36:12.916Z,-3.88
2023-02-16T04:38:41.379Z,-3.84
2023-02-16T04:41:09.783Z,-3.81
2023-02-16T04:43:38.011Z,-3.83
2023-02-16T04:46:06.602Z,-3.80
2023-02-16T04:48:34.987Z,-3.86
2023-02-16T04:51:05.347Z,-3.85
2023-02-16T04:53:35.337Z,-3.85
2023-02-16T04:56:04.399Z,-3.88
2023-02-16T04:58:32.670Z,-3.87
2023-02-16T05:01:01.033Z,-3.96
2023-02-16T05:03:29.720Z,-3.98
2023-02-16T05:05:57.975Z,-3.91
2023-02-16T05:08:26.365Z,-3.86
2023-02-16T05:11:10.001Z,-3.91
2023-02-16T05:14:03.982Z,-3.95
2023-02-16T05:16:32.235Z,-3.89
2023-02-16T05:19:00.570Z,-3.84
2023-02-16T05:21:35.989Z,-3.78
2023-02-16T05:24:05.847Z,-3.82
2023-02-16T05:26:37.272Z,-3.81
2023-02-16T05:29:05.711Z,-3.89
2023-02-16T05:31:34.041Z,-3.82
2023-02-16T05:34:02.460Z,-3.73
2023-02-16T05:36:30.776Z,-3.81
2023-02-16T05:38:59.004Z,-3.98
2023-02-16T05:41:27.753Z,-3.94
2023-02-16T05:44:00.058Z,-3.80
2023-02-16T05:46:29.738Z,-3.82
2023-02-16T05:48:58.047Z,-3.90
2023-02-16T05:51:26.939Z,-3.80
2023-02-16T05:53:55.376Z,-3.80
2023-02-16T05:56:23.734Z,-3.70
2023-02-16T05:58:53.847Z,-3.73
2023-02-16T06:01:23.658Z,-3.67
2023-02-16T06:03:51.953Z,-3.61
2023-02-16T06:06:20.361Z,-3.64
2023-02-16T06:08:48.811Z,-3.60
2023-02-16T06:11:30.852Z,-3.59
2023-02-16T06:13:59.856Z,-3.74
2023-02-16T06:16:30.237Z,-3.86
2023-02-16T06:18:58.644Z,-3.83
2023-02-16T06:21:27.755Z,-3.64
2023-02-16T06:23:56.108Z,-3.44
2023-02-16T06:26:24.624Z,-3.38
2023-02-16T06:28:53.721Z,-3.48
2023-02-16T06:31:22.324Z,-3.48
2023-02-16T06:33:52.181Z,-3.44
2023-02-16T06:36:20.810Z,-3.36
2023-02-16T06:38:50.565Z,-3.35
2023-02-16T06:41:31.693Z,-3.17
2023-02-16T06:44:01.160Z,-3.33
2023-02-16T06:46:29.873Z,-3.18
2023-02-16T06:48:59.619Z,-3.07
2023-02-16T06:51:28.311Z,-3.17
2023-02-16T06:53:56.631Z,-3.19
2023-02-16T06:56:25.384Z,-3.09
2023-02-16T06:58:53.948Z,-3.12
2023-02-16T07:01:26.250Z,-2.99
2023-02-16T07:03:55.306Z,-2.84
2023-02-16T07:06:26.445Z,-2.81
2023-02-16T07:08:55.101Z,-2.83
2023-02-16T07:11:23.722Z,-2.80
2023-02-16T07:13:52.235Z,-2.94
2023-02-16T07:16:20.677Z,-2.97
2023-02-16T07:18:49.042Z,-2.82
2023-02-16T07:21:17.694Z,-2.83
2023-02-16T07:23:52.187Z,-2.78
2023-02-16T07:26:20.603Z,-2.56
2023-02-16T07:28:49.037Z,-2.17
2023-02-16T07:31:18.514Z,-2.36
2023-02-16T07:33:47.053Z,-2.49
2023-02-16T07:36:15.879Z,-2.32
2023-02-16T07:38:44.123Z,-2.33
2023-02-16T07:41:14.079Z,-2.44
2023-02-16T07:43:43.163Z,-2.26
2023-02-16T07:46:11.838Z,-1.97
2023-02-16T07:48:40.708Z,-1.85
2023-02-16T07:51:09.250Z,-1.89
2023-02-16T07:53:37.656Z,-1.94
2023-02-16T07:56:06.478Z,-1.84
2023-02-16T07:58:36.947Z,-1.38
2023-02-16T08:01:09.740Z,-1.21
2023-02-16T08:03:39.089Z,-1.46
2023-02-16T08:06:08.691Z,-1.49
2023-02-16T08:08:37.993Z,-1.81
2023-02-16T08:11:11.229Z,-1.90
2023-02-16T08:13:41.055Z,-1.97
2023-02-16T08:16:10.248Z,-2.12
2023-02-16T08:18:38.647Z,-2.10
2023-02-16T08:21:14.500Z,-2.12
2023-02-16T08:23:47.744Z,-1.85
2023-02-16T08:26:18.549Z,-1.94
2023-02-16T08:28:50.230Z,-2.45
2023-02-16T08:31:20.444Z,-2.37
2023-02-16T08:33:49.690Z,-2.14
2023-02-16T08:36:19.135Z,-1.93
2023-02-16T08:38:50.423Z,-1.70
2023-02-16T08:41:19.127Z,-1.41
2023-02-16T08:43:49.324Z,-1.61
2023-02-16T08:46:18.778Z,-1.41
2023-02-16T08:48:47.561Z,-1.60
2023-02-16T08:51:17.763Z,-1.54
2023-02-16T08:53:46.690Z,-1.73
2023-02-16T08:56:16.974Z,-1.88
2023-02-16T08:58:45.389Z,-1.95
2023-02-16T09:01:16.682Z,-2.02
2023-02-16T09:03:46.630Z,-2.16
2023-02-16T09:06:17.255Z,-2.46
2023-02-16T09:08:46.684Z,-2.37
2023-02-16T09:11:17.125Z,-2.20
2023-02-16T09:13:46.951Z,-2.05
2023-02-16T09:16:18.346Z,-2.03
2023-02-16T09:18:47.472Z,-1.89
2023-02-16T09:21:18.021Z,-2.09
2023-02-16T09:23:48.701Z,-2.07
2023-02-16T09:26:17.804Z,-1.81
2023-02-16T09:28:47.422Z,-1.27
2023-02-16T09:31:20.525Z,-0.68
2023-02-16T09:33:49.178Z,1.14
2023-02-16T09:36:18.084Z,0.42
2023-02-16T09:38:47.644Z,-0.65
2023-02-16T09:41:23.767Z,-0.79
2023-02-16T09:43:57.838Z,-0.39
2023-02-16T09:46:28.475Z,1.52
2023-02-16T09:48:57.183Z,1.23
2023-02-16T09:51:34.287Z,0.29
2023-02-16T09:54:12.335Z,-0.90
2023-02-16T09:56:43.559Z,-1.52
2023-02-16T09:59:16.006Z,-1.78
2023-02-16T10:01:49.736Z,-1.68
2023-02-16T10:04:29.057Z,-1.93
2023-02-16T10:07:06.406Z,-1.73
2023-02-16T10:09:35.705Z,-1.54
2023-02-16T10:12:06.673Z,-1.54
2023-02-16T10:14:41.375Z,-1.38
2023-02-16T10:17:24.194Z,-1.26
2023-02-16T10:19:55.761Z,-1.12
2023-02-16T10:22:31.201Z,-1.01
2023-02-16T10:25:02.583Z,-1.39
2023-02-16T10:27:39.194Z,-1.52
2023-02-16T10:30:16.822Z,-1.81
2023-02-16T10:32:56.214Z,-1.91
2023-02-16T10:35:31.620Z,-1.60
2023-02-16T10:38:05.713Z,-1.75
2023-02-16T10:40:45.809Z,-1.35
2023-02-16T10:43:18.840Z,-0.44
2023-02-16T10:45:52.340Z,-0.36
2023-02-16T10:48:24.337Z,-0.53
2023-02-16T10:50:58.783Z,-0.66
2023-02-16T10:53:37.473Z,-1.23
2023-02-16T10:56:29.093Z,-1.52
2023-02-16T10:58:57.823Z,-1.57
2023-02-16T11:01:36.517Z,-1.94
2023-02-16T11:04:07.112Z,-1.97
2023-02-16T11:06:36.684Z,-1.96
2023-02-16T11:09:06.921Z,-1.76
2023-02-16T11:11:39.302Z,-1.91
2023-02-16T11:14:09.649Z,-1.92
2023-02-16T11:16:37.973Z,-1.61
2023-02-16T11:19:10.698Z,-1.69
2023-02-16T11:21:47.485Z,-1.65
2023-02-16T11:24:26.630Z,-1.80
2023-02-16T11:27:05.681Z,-1.47
2023-02-16T11:29:34.292Z,-1.60
2023-02-16T11:32:09.765Z,-1.67
2023-02-16T11:34:42.684Z,-1.64
2023-02-16T11:37:16.598Z,-1.86
2023-02-16T11:39:51.853Z,-1.70
2023-02-16T11:42:25.158Z,-1.98
2023-02-16T11:44:53.714Z,-1.56
2023-02-16T11:47:26.497Z,-1.47
2023-02-16T11:50:19.514Z,-1.49
2023-02-16T11:52:49.732Z,-1.66
2023-02-16T11:55:24.279Z,-1.51
2023-02-16T11:57:52.598Z,-1.55
2023-02-16T12:00:23.504Z,-1.66
2023-02-16T12:03:11.494Z,-1.90
2023-02-16T12:05:51.941Z,-1.80
2023-02-16T12:08:37.488Z,-1.92
2023-02-16T12:11:26.408Z,-2.08
2023-02-16T12:14:05.531Z,-2.27
2023-02-16T12:16:38.558Z,-2.29
2023-02-16T12:19:20.441Z,-2.33
2023-02-16T12:21:52.460Z,-2.25
2023-02-16T12:24:33.343Z,-2.07
2023-02-16T12:27:03.683Z,-2.00
2023-02-16T12:29:41.652Z,-2.37
2023-02-16T12:32:23.141Z,-2.48
2023-02-16T12:35:01.765Z,-2.35
2023-02-16T12:37:37.833Z,-2.10
2023-02-16T12:40:18.576Z,-2.42
2023-02-16T12:42:57.283Z,-2.53
2023-02-16T12:45:27.938Z,-2.47
2023-02-16T12:47:58.798Z,-2.44
2023-02-16T12:50:29.220Z,-2.47
2023-02-16T12:53:01.448Z,-2.42
2023-02-16T12:55:33.035Z,-2.36
2023-02-16T12:58:05.486Z,-2.38
2023-02-16T13:00:41.559Z,-2.51
2023-02-16T13:03:18.726Z,-2.22
2023-02-16T13:05:51.191Z,-2.28
2023-02-16T13:08:30.213Z,-2.46
2023-02-16T13:11:05.218Z,-2.80
2023-02-16T13:13:35.229Z,-2.83
2023-02-16T13:16:14.912Z,-2.92
2023-02-16T13:18:50.961Z,-3.08
2023-02-16T13:21:50.883Z,-3.07
2023-02-16T13:24:30.470Z,-3.04
2023-02-16T13:27:08.728Z,-2.94
2023-02-16T13:30:00.423Z,-3.05
2023-02-16T13:32:43.041Z,-3.30
2023-02-16T13:35:22.853Z,-3.34
2023-02-16T13:38:08.256Z,-3.45
2023-02-16T13:41:09.978Z,-3.50
2023-02-16T13:43:42.638Z,-3.62
2023-02-16T13:46:28.818Z,-3.68
2023-02-16T13:48:57.353Z,-3.69
2023-02-16T13:51:27.953Z,-3.76
2023-02-16T13:53:58.387Z,-3.88
2023-02-16T13:56:38.028Z,-3.97
2023-02-16T13:59:57.911Z,-3.84
2023-02-16T14:02:55.818Z,-4.02
2023-02-16T14:05:34.392Z,-4.12
2023-02-16T14:08:20.759Z,-4.14
2023-02-16T14:11:01.461Z,-4.17
2023-02-16T14:13:32.991Z,-4.29
2023-02-16T14:16:08.267Z,-4.26
2023-02-16T14:18:44.351Z,-4.30
2023-02-16T14:21:32.595Z,-4.55
2023-02-16T14:24:03.270Z,-4.37
2023-02-16T14:26:32.045Z,-4.36
2023-02-16T14:29:12.660Z,-4.39
2023-02-16T14:31:49.507Z,-4.56
2023-02-16T14:34:21.989Z,-4.64
2023-02-16T14:37:22.554Z,-4.68
2023-02-16T14:40:07.329Z,-4.74
2023-02-16T14:42:37.474Z,-4.82
2023-02-16T14:45:35.875Z,-4.75
2023-02-16T14:48:15.552Z,-4.76
2023-02-16T14:50:55.132Z,-4.82
2023-02-16T14:53:49.785Z,-4.95
2023-02-16T14:56:31.430Z,-5.08
2023-02-16T14:59:02.046Z,-5.07
2023-02-16T15:01:30.420Z,-5.09
2023-02-16T15:04:00.591Z,-5.24
2023-02-16T15:06:33.489Z,-5.18
2023-02-16T15:09:03.583Z,-5.13
2023-02-16T15:11:34.600Z,-5.31
2023-02-16T15:14:09.211Z,-5.37
2023-02-16T15:16:40.624Z,-5.43
2023-02-16T15:19:21.680Z,-5.34
2023-02-16T15:22:09.172Z,-5.35
2023-02-16T15:24:39.027Z,-5.42
2023-02-16T15:27:07.635Z,-5.40
2023-02-16T15:29:36.204Z,-5.42
2023-02-16T15:32:08.515Z,-5.67
2023-02-16T15:34:39.497Z,-5.51
2023-02-16T15:37:24.434Z,-5.48
2023-02-16T15:40:12.285Z,-5.48
2023-02-16T15:42:43.594Z,-5.69
2023-02-16T15:45:30.072Z,-5.82
2023-02-16T15:48:16.828Z,-5.66
2023-02-16T15:50:47.385Z,-5.64
2023-02-16T15:53:16.712Z,-5.45
2023-02-16T15:55:46.900Z,-5.37
2023-02-16T15:58:18.787Z,-5.40
2023-02-16T16:00:47.920Z,-5.27
2023-02-16T16:03:18.412Z,-5.17
2023-02-16T16:06:00.498Z,-5.39
2023-02-16T16:08:30.417Z,-5.44
2023-02-16T16:10:58.964Z,-5.30
2023-02-16T16:13:29.427Z,-5.28
2023-02-16T16:16:02.101Z,-5.29
2023-02-16T16:18:39.519Z,-5.30
2023-02-16T16:21:37.116Z,-5.20
2023-02-16T16:24:06.961Z,-5.30
2023-02-16T16:26:37.965Z,-5.50
2023-02-16T16:29:31.888Z,-5.64
2023-02-16T16:32:00.362Z,-5.68
2023-02-16T16:34:34.449Z,-5.65
2023-02-16T16:37:07.094Z,-5.84
2023-02-16T16:39:36.605Z,-5.83
2023-02-16T16:42:23.452Z,-5.80
2023-02-16T16:45:00.859Z,-5.79
2023-02-16T16:47:34.882Z,-5.77
2023-02-16T16:50:05.938Z,-5.78
2023-02-16T16:52:41.767Z,-5.67
2023-02-16T16:55:34.129Z,-5.71
2023-02-16T16:58:04.667Z,-5.67
2023-02-16T17:00:35.644Z,-5.85
2023-02-16T17:03:04.545Z,-5.72
2023-02-16T17:05:33.337Z,-5.85
2023-02-16T17:08:04.310Z,-5.76
2023-02-16T17:10:32.987Z,-5.80
2023-02-16T17:13:03.104Z,-5.85
2023-02-16T17:15:37.318Z,-5.86
2023-02-16T17:18:07.005Z,-5.90
2023-02-16T17:20:35.973Z,-5.87
2023-02-16T17:23:06.835Z,-6.00
2023-02-16T17:25:36.621Z,-6.04
2023-02-16T17:28:06.421Z,-6.00
2023-02-16T17:30:35.428Z,-6.07
2023-02-16T17:33:04.622Z,-6.16
2023-02-16T17:35:33.549Z,-6.12
2023-02-16T17:38:10.708Z,-6.10
2023-02-16T17:40:39.957Z,-6.07
2023-02-16T17:43:18.386Z,-6.01
2023-02-16T17:45:47.173Z,-6.19
2023-02-16T17:48:17.887Z,-6.27
2023-02-16T17:50:46.802Z,-6.34
2023-02-16T17:53:18.952Z,-6.33
2023-02-16T17:55:48.590Z,-6.22
2023-02-16T17:58:18.006Z,-6.24
2023-02-16T18:00:47.453Z,-6.17
2023-02-16T18:03:16.207Z,-6.13
2023-02-16T18:05:45.204Z,-6.20
2023-02-16T18:08:14.504Z,-6.14
2023-02-16T18:10:46.560Z,-6.06
2023-02-16T18:13:15.353Z,-6.05
2023-02-16T18:15:47.533Z,-6.06
2023-02-16T18:18:16.862Z,-6.05
2023-02-16T18:20:46.106Z,-6.18
2023-02-16T18:23:14.771Z,-6.22
2023-02-16T18:25:45.922Z,-6.32
2023-02-16T18:28:15.319Z,-6.44
2023-02-16T18:30:43.734Z,-6.61
2023-02-16T18:33:12.312Z,-6.71
2023-02-16T18:35:42.181Z,-6.68
2023-02-16T18:38:10.716Z,-6.67
2023-02-16T18:40:39.340Z,-6.87
2023-02-16T18:43:10.717Z,-6.99
2023-02-16T18:45:40.064Z,-7.19
2023-02-16T18:48:08.493Z,-7.35
2023-02-16T18:50:37.081Z,-7.39
2023-02-16T18:53:05.597Z,-7.60
2023-02-16T18:55:34.110Z,-7.53
2023-02-16T18:58:06.695Z,-7.41
2023-02-16T19:00:38.016Z,-7.40
2023-02-16T19:03:06.749Z,-7.27
2023-02-16T19:05:35.223Z,-7.22
2023-02-16T19:08:03.693Z,-7.32
2023-02-16T19:10:32.077Z,-7.37
2023-02-16T19:13:02.114Z,-7.47
2023-02-16T19:15:31.027Z,-7.43
2023-02-16T19:18:00.758Z,-7.62
2023-02-16T19:20:29.813Z,-7.75
2023-02-16T19:22:58.432Z,-7.81
2023-02-16T19:25:27.312Z,-7.66
2023-02-16T19:27:55.580Z,-7.44
2023-02-16T19:30:24.936Z,-7.37
2023-02-16T19:32:53.566Z,-7.27
2023-02-16T19:35:23.405Z,-7.30
2023-02-16T19:37:53.861Z,-7.31
2023-02-16T19:40:22.112Z,-7.35
2023-02-16T19:42:50.497Z,-7.38
2023-02-16T19:45:19.464Z,-7.47
2023-02-16T19:47:47.735Z,-7.39
2023-02-16T19:50:16.046Z,-7.27
2023-02-16T19:52:45.793Z,-7.23
2023-02-16T19:55:14.212Z,-7.29
2023-02-16T19:57:42.528Z,-7.33
2023-02-16T20:00:13.666Z,-7.30
2023-02-16T20:02:42.934Z,-7.35
2023-02-16T20:05:11.969Z,-7.17
2023-02-16T20:07:40.470Z,-7.01
2023-02-16T20:10:10.832Z,-6.92
2023-02-16T20:12:39.098Z,-7.00
2023-02-16T20:15:15.657Z,-6.92
2023-02-16T20:17:45.532Z,-6.95
2023-02-16T20:20:15.525Z,-6.92
2023-02-16T20:22:44.075Z,-6.94
2023-02-16T20:25:13.968Z,-7.11
2023-02-16T20:27:42.378Z,-7.16
2023-02-16T20:30:16.138Z,-7.22
2023-02-16T20:32:47.068Z,-7.14
2023-02-16T20:35:15.623Z,-7.15
2023-02-16T20:37:44.295Z,-7.24
2023-02-16T20:40:20.620Z,-7.16
2023-02-16T20:42:49.367Z,-7.13
2023-02-16T20:45:17.745Z,-7.14
2023-02-16T20:47:46.671Z,-7.19
2023-02-16T20:50:15.340Z,-7.31
2023-02-16T20:52:43.668Z,-7.32
2023-02-16T20:55:13.551Z,-7.26
2023-02-16T20:57:42.609Z,-7.27
2023-02-16T21:00:16.827Z,-7.19
2023-02-16T21:02:45.720Z,-7.32
2023-02-16T21:05:14.941Z,-7.42
2023-02-16T21:07:43.575Z,-7.29
2023-02-16T21:10:15.308Z,-7.41
2023-02-16T21:12:44.636Z,-7.49
2023-02-16T21:15:13.341Z,-7.14
2023-02-16T21:17:41.838Z,-7.00
2023-02-16T21:20:11.768Z,-7.07
2023-02-16T21:22:41.788Z,-7.24
2023-02-16T21:25:11.217Z,-7.17
2023-02-16T21:27:41.285Z,-7.11
2023-02-16T21:30:11.228Z,-7.05
2023-02-16T21:32:39.626Z,-6.95
2023-02-16T21:35:08.616Z,-7.09
2023-02-16T21:37:38.718Z,-7.33
2023-02-16T21:40:25.706Z,-7.24
2023-02-16T21:42:55.393Z,-7.14
2023-02-16T21:45:23.773Z,-6.95
2023-02-16T21:48:09.388Z,-7.05
2023-02-16T21:50:39.440Z,-7.11
2023-02-16T21:53:08.193Z,-7.07
2023-02-16T21:55:55.417Z,-7.22
2023-02-16T21:58:26.964Z,-7.28
2023-02-16T22:00:56.622Z,-7.36
2023-02-16T22:03:24.956Z,-7.29
2023-02-16T22:05:54.016Z,-7.24
2023-02-16T22:08:22.376Z,-7.36
2023-02-16T22:10:50.672Z,-7.32
2023-02-16T22:13:18.991Z,-7.33
2023-02-16T22:15:49.296Z,-7.09
2023-02-16T22:18:17.568Z,-7.05
2023-02-16T22:20:46.307Z,-7.01
2023-02-16T22:23:14.694Z,-7.07
2023-02-16T22:25:42.975Z,-6.98
2023-02-16T22:28:11.218Z,-6.93
2023-02-16T22:30:39.648Z,-7.09
2023-02-16T22:33:09.392Z,-7.07
2023-02-16T22:35:37.700Z,-7.01
2023-02-16T22:38:06.477Z,-7.07
2023-02-16T22:40:34.786Z,-7.08
2023-02-16T22:43:03.083Z,-7.03
2023-02-16T22:45:31.552Z,-6.94
2023-02-16T22:47:59.878Z,-6.88
2023-02-16T22:50:29.534Z,-6.78
2023-02-16T22:52:58.334Z,-6.85
2023-02-16T22:55:26.675Z,-6.92
2023-02-16T22:57:54.912Z,-6.79
2023-02-16T23:00:23.462Z,-6.78
2023-02-16T23:02:51.767Z,-6.75
2023-02-16T23:05:20.052Z,-6.91
2023-02-16T23:07:49.765Z,-6.89
2023-02-16T23:10:18.456Z,-6.94
2023-02-16T23:12:46.783Z,-7.01
2023-02-16T23:15:15.151Z,-7.07
2023-02-16T23:17:43.482Z,-7.01
2023-02-16T23:20:12.632Z,-6.94
2023-02-16T23:22:41.139Z,-6.86
2023-02-16T23:25:28.746Z,-6.86
2023-02-16T23:27:57.249Z,-6.95
2023-02-16T23:30:25.726Z,-6.84
2023-02-16T23:32:54.039Z,-6.78
2023-02-16T23:35:22.438Z,-6.84
2023-02-16T23:37:50.868Z,-6.98
2023-02-16T23:40:21.032Z,-7.01
2023-02-16T23:42:49.512Z,-7.00
2023-02-16T23:45:17.872Z,-6.86
2023-02-16T23:47:46.106Z,-6.76
2023-02-16T23:50:14.486Z,-6.53
2023-02-16T23:52:42.848Z,-6.76
2023-02-16T23:55:11.110Z,-6.75
2023-02-16T23:57:41.231Z,-6.68
